Time;durP1;ratioP1;P1;durP2;ratioP2;P2;SDS_P1;SDS_P2;PMS_P1;PMS_P2;Temp;Humidity;BMP_temperature;BMP_pressure;BME280_temperature;BME280_humidity;BME280_pressure;Samples;Min_cycle;Max_cycle;Signal;HPM_P1;HPM_P2
2022/03/09 00:01:43;;;;;;;34.33;21.75;;;;;;;5.51;53.74;100695.28;5008982;28;20125;-75
2022/03/09 00:04:10;;;;;;;34.50;22.38;;;;;;;5.52;53.78;100706.59;5007389;28;20532;-72
2022/03/09 00:06:37;;;;;;;41.55;24.85;;;;;;;5.51;53.65;100700.53;5007566;28;20136;-74
2022/03/09 00:09:04;;;;;;;38.00;23.15;;;;;;;5.49;53.75;100698.88;5009203;28;20056;-79
2022/03/09 00:11:33;;;;;;;42.22;22.48;;;;;;;5.46;53.82;100699.88;5012946;28;20050;-76
2022/03/09 00:14:00;;;;;;;37.35;19.42;;;;;;;5.46;53.80;100694.63;5012918;28;20506;-76
2022/03/09 00:16:27;;;;;;;39.28;21.25;;;;;;;5.45;53.82;100685.06;5013672;28;20046;-76
2022/03/09 00:18:56;;;;;;;33.95;20.58;;;;;;;5.51;53.70;100690.03;5015337;28;20077;-79
2022/03/09 00:21:24;;;;;;;33.92;20.40;;;;;;;5.49;53.66;100688.38;5013117;28;20046;-78
2022/03/09 00:23:51;;;;;;;31.15;19.70;;;;;;;5.50;53.70;100693.56;5013506;28;20080;-74
2022/03/09 00:26:18;;;;;;;35.75;22.33;;;;;;;5.48;53.75;100690.16;5007753;28;20042;-73
2022/03/09 00:28:45;;;;;;;36.75;20.77;;;;;;;5.47;53.63;100693.69;5006578;28;20077;-76
2022/03/09 00:31:12;;;;;;;34.75;18.42;;;;;;;5.53;53.50;100689.97;5007395;28;20052;-72
2022/03/09 00:33:39;;;;;;;39.85;23.20;;;;;;;5.51;53.63;100686.53;5007590;28;20136;-71
2022/03/09 00:36:08;;;;;;;35.00;21.38;;;;;;;5.52;53.54;100686.47;5008073;28;20549;-73
2022/03/09 00:38:35;;;;;;;35.05;22.75;;;;;;;5.53;53.57;100679.50;5009080;28;20056;-73
2022/03/09 00:41:02;;;;;;;31.58;20.50;;;;;;;5.53;53.54;100672.47;5009603;28;20045;-75
2022/03/09 00:43:29;;;;;;;37.70;23.60;;;;;;;5.55;53.61;100672.41;5008578;28;20046;-71
2022/03/09 00:45:57;;;;;;;34.85;20.35;;;;;;;5.55;53.59;100688.13;5009263;28;20133;-75
2022/03/09 00:48:24;;;;;;;38.40;24.45;;;;;;;5.50;53.63;100688.31;5009895;28;20056;-75
2022/03/09 00:50:51;;;;;;;39.08;23.27;;;;;;;5.53;53.76;100688.19;5009532;28;20086;-75
2022/03/09 00:53:20;;;;;;;35.15;21.60;;;;;;;5.55;53.48;100683.75;5009379;28;20042;-72
2022/03/09 00:55:47;;;;;;;36.50;21.35;;;;;;;5.57;53.48;100688.06;5011546;28;20054;-74
2022/03/09 00:58:14;;;;;;;40.95;24.42;;;;;;;5.55;53.54;100678.50;5011293;28;20550;-78
2022/03/09 01:00:43;;;;;;;35.42;21.10;;;;;;;5.62;53.33;100672.97;5011702;28;20062;-79
2022/03/09 01:03:10;;;;;;;33.20;21.30;;;;;;;5.62;53.43;100671.22;5012552;28;20129;-74
2022/03/09 01:05:37;;;;;;;33.97;22.33;;;;;;;5.66;53.30;100669.31;5010468;28;20133;-77
2022/03/09 01:08:05;;;;;;;36.00;20.67;;;;;;;5.65;53.35;100664.97;5012016;28;20132;-72
2022/03/09 01:10:33;;;;;;;35.78;22.73;;;;;;;5.64;53.31;100668.53;5011442;28;20076;-74
2022/03/09 01:13:06;;;;;;;39.53;22.50;;;;;;;5.64;53.39;100676.41;5010207;28;20592;-74
2022/03/09 01:15:33;;;;;;;36.17;21.70;;;;;;;5.64;53.32;100674.63;5011607;28;20050;-76
2022/03/09 01:18:00;;;;;;;33.50;21.23;;;;;;;5.67;53.25;100673.63;5010906;28;20060;-71
2022/03/09 01:20:27;;;;;;;35.20;22.05;;;;;;;5.68;53.22;100681.41;5009408;28;20125;-71
2022/03/09 01:22:55;;;;;;;30.92;22.73;;;;;;;5.68;53.15;100670.94;5006236;28;20046;-72
2022/03/09 01:25:22;;;;;;;36.25;21.77;;;;;;;5.74;53.09;100667.16;5007305;28;20105;-75
2022/03/09 01:27:50;;;;;;;38.30;23.58;;;;;;;5.71;53.11;100672.56;5008997;28;20053;-75
2022/03/09 01:30:17;;;;;;;36.55;20.15;;;;;;;5.73;53.13;100665.50;5010582;28;20045;-75
2022/03/09 01:32:44;;;;;;;36.75;20.90;;;;;;;5.73;53.08;100665.50;5009776;28;20056;-74
2022/03/09 01:35:11;;;;;;;34.65;20.92;;;;;;;5.73;53.01;100673.34;5009332;28;20147;-71
2022/03/09 01:37:38;;;;;;;35.25;20.83;;;;;;;5.73;53.01;100670.72;5009821;28;20056;-74
2022/03/09 01:40:06;;;;;;;35.35;20.02;;;;;;;5.70;53.06;100666.47;5008941;28;20052;-74
2022/03/09 01:42:33;;;;;;;38.85;21.38;;;;;;;5.71;53.01;100660.31;5008624;28;20446;-74
2022/03/09 01:45:05;;;;;;;40.53;22.95;;;;;;;5.78;53.02;100662.63;5008957;28;20508;-76
2022/03/09 01:47:32;;;;;;;34.88;18.98;;;;;;;5.82;52.80;100662.44;5023039;28;20058;-76
2022/03/09 01:49:59;;;;;;;36.67;20.35;;;;;;;5.81;52.74;100660.72;5012619;28;20129;-74
2022/03/09 01:52:26;;;;;;;36.10;20.95;;;;;;;5.82;52.79;100659.81;5009865;28;20041;-75
2022/03/09 01:54:54;;;;;;;33.05;19.52;;;;;;;5.82;52.80;100657.19;5041873;28;20173;-74
2022/03/09 01:57:22;;;;;;;32.67;20.63;;;;;;;5.81;52.78;100652.88;5011379;28;20470;-74
2022/03/09 01:59:49;;;;;;;43.03;21.45;;;;;;;5.82;52.79;100654.56;5011189;28;20093;-73
2022/03/09 02:02:18;;;;;;;38.20;21.73;;;;;;;5.79;52.87;100657.34;5011964;28;20053;-74
2022/03/09 02:04:45;;;;;;;37.58;20.40;;;;;;;5.79;52.86;100651.25;5013703;28;20056;-76
2022/03/09 02:07:14;;;;;;;40.30;20.25;;;;;;;5.79;52.74;100654.72;5012499;28;20426;-74
2022/03/09 02:09:44;;;;;;;41.38;21.65;;;;;;;5.79;52.68;100657.34;5014659;28;20054;-74
2022/03/09 02:12:14;;;;;;;39.70;19.85;;;;;;;5.81;52.68;100655.50;5016426;28;20104;-75
2022/03/09 02:14:43;;;;;;;35.22;20.85;;;;;;;5.80;52.64;100645.94;5013840;28;20077;-76
2022/03/09 02:17:13;;;;;;;39.25;22.73;;;;;;;5.80;52.52;100652.94;5013859;28;20129;-78
2022/03/09 02:19:43;;;;;;;33.45;17.60;;;;;;;5.81;52.56;100652.88;5014907;28;20046;-74
2022/03/09 02:22:14;;;;;;;39.50;22.60;;;;;;;5.78;52.53;100655.66;5015765;28;20505;-77
2022/03/09 02:24:43;;;;;;;34.08;17.70;;;;;;;5.82;52.41;100657.19;5016977;28;20148;-73
2022/03/09 02:27:10;;;;;;;31.85;18.67;;;;;;;5.83;52.36;100656.25;5014602;28;20299;-75
2022/03/09 02:29:36;;;;;;;27.73;17.52;;;;;;;5.85;52.22;100657.06;5014801;28;20117;-72
2022/03/09 02:32:05;;;;;;;30.88;19.42;;;;;;;5.83;52.28;100658.03;5013755;28;20086;-73
2022/03/09 02:34:32;;;;;;;28.83;17.52;;;;;;;5.82;52.21;100657.19;5013458;28;20069;-74
2022/03/09 02:37:00;;;;;;;34.95;18.13;;;;;;;5.84;52.30;100660.59;5014432;28;20412;-73
2022/03/09 02:39:27;;;;;;;31.00;17.67;;;;;;;5.86;52.25;100669.22;5016302;28;20124;-73
2022/03/09 02:41:55;;;;;;;35.13;18.58;;;;;;;5.89;52.17;100666.47;5017604;28;20222;-72
2022/03/09 02:44:22;;;;;;;26.38;17.15;;;;;;;5.89;52.01;100658.63;5012196;28;20049;-73
2022/03/09 02:46:50;;;;;;;28.50;19.73;;;;;;;5.89;51.98;100657.78;5015774;28;20145;-71
2022/03/09 02:49:17;;;;;;;33.17;19.05;;;;;;;5.87;52.06;100659.59;5023955;28;20080;-71
2022/03/09 02:51:44;;;;;;;33.42;16.40;;;;;;;5.88;52.08;100646.41;5020852;28;20049;-73
2022/03/09 02:54:11;;;;;;;32.35;17.98;;;;;;;5.87;52.08;100646.47;5028308;28;20073;-72
2022/03/09 02:56:38;;;;;;;30.40;17.95;;;;;;;5.84;52.11;100638.78;5029206;28;20062;-72
2022/03/09 02:59:07;;;;;;;32.58;17.10;;;;;;;5.81;52.00;100637.13;5028642;28;20054;-74
2022/03/09 03:01:34;;;;;;;32.47;17.67;;;;;;;5.83;52.08;100645.78;5028165;28;20121;-76
2022/03/09 03:04:01;;;;;;;28.20;16.55;;;;;;;5.82;52.07;100644.09;5023947;28;20080;-75
2022/03/09 03:06:28;;;;;;;31.42;19.75;;;;;;;5.82;52.02;100641.47;5017575;28;20125;-73
2022/03/09 03:08:55;;;;;;;32.97;19.13;;;;;;;5.79;52.08;100646.84;5021638;28;20068;-72
2022/03/09 03:11:22;;;;;;;37.05;18.90;;;;;;;5.77;52.10;100648.69;5020420;28;20125;-72
2022/03/09 03:13:50;;;;;;;29.60;18.10;;;;;;;5.75;52.17;100646.13;5016851;28;20137;-73
2022/03/09 03:16:18;;;;;;;31.80;20.88;;;;;;;5.72;52.22;100635.78;5018722;28;20050;-72
2022/03/09 03:18:45;;;;;;;36.38;19.20;;;;;;;5.72;52.23;100637.56;5016576;28;20490;-72
2022/03/09 03:21:12;;;;;;;29.60;18.30;;;;;;;5.70;52.17;100636.78;5015588;28;20052;-72
2022/03/09 03:23:39;;;;;;;29.48;17.05;;;;;;;5.67;52.28;100632.56;5019205;28;20046;-73
2022/03/09 03:26:07;;;;;;;34.97;18.02;;;;;;;5.64;52.36;100635.31;5016613;28;20129;-73
2022/03/09 03:28:34;;;;;;;29.50;16.83;;;;;;;5.64;52.36;100634.47;5018585;28;20103;-71
2022/03/09 03:31:01;;;;;;;36.78;20.50;;;;;;;5.63;52.46;100635.38;5021615;28;20073;-77
2022/03/09 03:33:32;;;;;;;30.98;17.05;;;;;;;5.61;52.50;100631.97;5022318;28;20042;-74
2022/03/09 03:35:59;;;;;;;32.00;18.92;;;;;;;5.59;52.41;100628.59;5021180;28;20129;-72
2022/03/09 03:38:26;;;;;;;33.13;18.83;;;;;;;5.55;52.39;100631.34;5021167;28;20050;-73
2022/03/09 03:40:53;;;;;;;31.10;16.88;;;;;;;5.53;52.63;100634.97;5019001;28;20069;-72
2022/03/09 03:43:20;;;;;;;31.77;17.10;;;;;;;5.50;52.60;100637.69;5022383;28;20133;-77
2022/03/09 03:45:47;;;;;;;32.28;18.02;;;;;;;5.49;52.59;100634.25;5022939;28;20078;-72
2022/03/09 03:48:14;;;;;;;29.83;18.45;;;;;;;5.47;52.63;100638.69;5022666;28;20048;-72
2022/03/09 03:50:42;;;;;;;31.33;17.23;;;;;;;5.46;52.64;100642.22;5022362;28;20122;-71
2022/03/09 03:53:09;;;;;;;26.05;17.58;;;;;;;5.46;52.64;100646.63;5016208;28;20137;-74
2022/03/09 03:55:36;;;;;;;28.40;16.17;;;;;;;5.44;52.62;100644.06;5020385;28;20026;-76
2022/03/09 03:58:03;;;;;;;33.00;17.83;;;;;;;5.44;52.67;100646.69;5019131;28;20093;-71
2022/03/09 04:00:36;;;;;;;35.53;18.50;;;;;;;5.42;52.77;100640.69;5013756;28;20050;-72
2022/03/09 04:03:03;;;;;;;27.65;16.10;;;;;;;5.40;52.60;100639.88;5014841;28;20068;-72
2022/03/09 04:05:30;;;;;;;24.02;16.33;;;;;;;5.39;52.70;100638.19;5014003;28;20562;-74
2022/03/09 04:07:58;;;;;;;21.52;15.35;;;;;;;5.41;52.62;100640.75;5013286;28;20136;-75
2022/03/09 04:10:25;;;;;;;26.88;15.05;;;;;;;5.43;52.58;100639.75;5014469;28;20087;-77
2022/03/09 04:12:52;;;;;;;32.78;16.85;;;;;;;5.42;52.58;100629.31;5017456;28;20125;-71
2022/03/09 04:15:19;;;;;;;35.85;17.63;;;;;;;5.41;52.52;100625.03;5014483;28;20128;-75
2022/03/09 04:17:47;;;;;;;35.83;20.40;;;;;;;5.38;52.59;100623.38;5011280;28;20088;-74
2022/03/09 04:20:16;;;;;;;32.83;19.15;;;;;;;5.37;52.76;100626.94;5014822;28;20119;-75
2022/03/09 04:22:44;;;;;;;33.05;18.65;;;;;;;5.32;52.69;100616.66;5015462;28;20117;-74
2022/03/09 04:25:13;;;;;;;35.75;20.17;;;;;;;5.31;52.76;100614.09;5015684;28;20133;-75
2022/03/09 04:27:40;;;;;;;42.30;22.58;;;;;;;5.22;52.87;100611.88;5027017;28;20045;-73
2022/03/09 04:30:09;;;;;;;53.55;29.88;;;;;;;5.12;53.18;100612.31;5037074;28;20046;-71
2022/03/09 04:32:36;;;;;;;42.83;27.85;;;;;;;5.07;53.43;100611.66;5035278;28;20069;-71
2022/03/09 04:35:04;;;;;;;44.30;25.15;;;;;;;5.04;53.48;100611.81;5035056;28;20060;-72
2022/03/09 04:37:33;;;;;;;43.80;25.75;;;;;;;4.99;53.73;100608.53;5036258;28;20103;-73
2022/03/09 04:40:00;;;;;;;43.92;22.25;;;;;;;4.99;53.59;100613.78;5036353;28;20136;-73
2022/03/09 04:42:29;;;;;;;43.28;23.45;;;;;;;4.96;53.88;100613.91;5038508;28;20041;-77
2022/03/09 04:44:56;;;;;;;40.97;21.30;;;;;;;4.93;53.95;100609.66;5037398;28;20138;-72
2022/03/09 04:47:23;;;;;;;35.00;21.25;;;;;;;4.93;54.05;100614.88;5034558;28;20121;-74
2022/03/09 04:49:51;;;;;;;37.33;21.95;;;;;;;4.94;53.99;100615.72;5033927;28;20056;-77
2022/03/09 04:52:18;;;;;;;38.38;22.40;;;;;;;4.88;54.27;100615.97;5030124;28;20053;-73
2022/03/09 04:54:47;;;;;;;38.50;21.63;;;;;;;4.91;54.12;100621.94;5028660;28;20049;-76
2022/03/09 04:57:14;;;;;;;34.45;21.60;;;;;;;4.86;54.38;100620.44;5012210;28;20073;-75
2022/03/09 04:59:42;;;;;;;40.85;22.05;;;;;;;4.84;54.56;100624.88;5028183;28;20200;-71
2022/03/09 05:02:09;;;;;;;47.17;23.23;;;;;;;4.82;54.54;100618.88;5028646;28;20053;-76
2022/03/09 05:04:36;;;;;;;38.47;23.13;;;;;;;4.75;54.85;100621.75;5030435;28;20536;-77
2022/03/09 05:07:04;;;;;;;44.83;26.00;;;;;;;4.77;54.76;100621.66;5030068;28;20052;-73
2022/03/09 05:09:31;;;;;;;37.50;21.23;;;;;;;4.78;54.67;100619.00;5027480;28;20045;-72
2022/03/09 05:11:58;;;;;;;36.30;22.02;;;;;;;4.78;54.62;100616.38;5028205;28;20056;-77
2022/03/09 05:14:25;;;;;;;41.33;24.30;;;;;;;4.74;54.83;100625.28;5027753;28;20063;-77
2022/03/09 05:16:54;;;;;;;40.25;23.27;;;;;;;4.72;54.80;100621.03;5027438;28;20132;-74
2022/03/09 05:19:20;;;;;;;33.72;22.88;;;;;;;4.75;54.80;100613.91;5025724;28;20077;-74
2022/03/09 05:21:47;;;;;;;41.63;23.95;;;;;;;4.73;54.80;100626.19;5024507;28;20124;-73
2022/03/09 05:24:16;;;;;;;39.28;26.65;;;;;;;4.74;54.86;100624.44;5026440;28;20616;-74
2022/03/09 05:26:46;;;;;;;42.20;26.10;;;;;;;4.75;54.88;100632.22;5026422;28;20166;-73
2022/03/09 05:29:14;;;;;;;42.88;25.40;;;;;;;4.75;54.87;100631.34;5025636;28;20047;-75
2022/03/09 05:31:41;;;;;;;46.20;26.95;;;;;;;4.71;55.12;100635.03;5029401;28;20141;-75
2022/03/09 05:34:10;;;;;;;46.40;28.08;;;;;;;4.68;55.34;100625.56;5026628;28;20072;-72
2022/03/09 05:36:37;;;;;;;44.85;26.73;;;;;;;4.72;55.07;100628.88;5032988;28;20097;-76
2022/03/09 05:39:04;;;;;;;42.72;25.75;;;;;;;4.75;55.07;100637.47;5030130;28;20168;-71
2022/03/09 05:41:32;;;;;;;44.13;24.30;;;;;;;4.72;55.21;100645.44;5029912;28;20056;-71
2022/03/09 05:44:00;;;;;;;42.65;25.98;;;;;;;4.75;55.21;100647.06;5028965;28;20049;-75
2022/03/09 05:46:27;;;;;;;46.53;25.55;;;;;;;4.81;55.12;100651.19;5026124;28;20124;-74
2022/03/09 05:48:54;;;;;;;44.85;28.50;;;;;;;4.83;55.16;100655.44;5027611;28;20132;-71
2022/03/09 05:51:22;;;;;;;49.65;30.20;;;;;;;4.73;55.47;100649.72;5025267;28;20449;-75
2022/03/09 05:53:49;;;;;;;40.97;27.83;;;;;;;4.67;55.52;100665.69;5027084;28;20529;-73
2022/03/09 05:56:16;;;;;;;45.58;30.13;;;;;;;4.63;55.72;100669.38;5029208;28;20045;-79
2022/03/09 05:58:43;;;;;;;46.83;26.83;;;;;;;4.65;55.82;100678.00;5027243;28;20144;-74
2022/03/09 06:01:10;;;;;;;46.70;27.25;;;;;;;4.69;55.74;100682.19;5028505;28;20059;-75
2022/03/09 06:03:37;;;;;;;56.28;30.88;;;;;;;4.69;55.86;100684.81;5028704;28;20077;-75
2022/03/09 06:06:04;;;;;;;52.00;32.67;;;;;;;4.69;55.97;100683.97;5028581;28;20632;-72
2022/03/09 06:08:43;;;;;;;50.40;31.75;;;;;;;4.75;55.80;100688.94;5025584;28;20060;-78
2022/03/09 06:11:10;;;;;;;60.47;33.13;;;;;;;4.73;55.78;100685.53;5029914;28;20617;-74
2022/03/09 06:13:37;;;;;;;56.05;32.28;;;;;;;4.72;55.90;100694.31;5027416;28;20057;-73
2022/03/09 06:16:07;;;;;;;53.65;32.35;;;;;;;4.74;55.79;100697.72;5017834;28;20075;-72
2022/03/09 06:18:34;;;;;;;62.45;34.58;;;;;;;4.77;55.75;100698.44;5014490;28;20219;-73
2022/03/09 06:21:01;;;;;;;57.58;33.38;;;;;;;4.73;56.10;100696.84;5022944;28;20057;-77
2022/03/09 06:23:30;;;;;;;54.47;34.90;;;;;;;4.74;56.06;100689.84;5034383;28;20049;-78
2022/03/09 06:25:58;;;;;;;61.50;36.03;;;;;;;4.87;55.84;100695.44;5028230;28;20045;-74
2022/03/09 06:28:25;;;;;;;44.55;31.02;;;;;;;4.83;55.81;100697.31;5030012;28;20140;-75
2022/03/09 06:30:52;;;;;;;55.75;36.78;;;;;;;4.84;55.86;100696.38;5028699;28;20060;-74
2022/03/09 06:33:19;;;;;;;57.35;32.38;;;;;;;4.90;55.71;100697.94;5029004;28;20109;-72
2022/03/09 06:35:46;;;;;;;62.60;35.65;;;;;;;4.81;56.03;100704.38;5030928;28;20089;-73
2022/03/09 06:38:13;;;;;;;47.95;27.73;;;;;;;4.84;56.05;100709.47;5029226;28;20073;-74
2022/03/09 06:40:41;;;;;;;50.42;31.00;;;;;;;5.02;55.83;100712.25;5027519;28;20120;-74
2022/03/09 06:43:09;;;;;;;49.88;29.83;;;;;;;5.20;55.53;100708.00;5028316;28;20608;-71
2022/03/09 06:45:36;;;;;;;47.53;31.40;;;;;;;5.28;55.16;100719.00;5028018;28;20049;-74
2022/03/09 06:48:04;;;;;;;52.45;32.35;;;;;;;5.24;55.14;100720.91;5027790;28;20055;-73
2022/03/09 06:50:32;;;;;;;47.63;31.00;;;;;;;5.30;54.95;100722.41;5028540;28;20173;-73
2022/03/09 06:52:59;;;;;;;42.20;28.77;;;;;;;5.29;55.13;100721.53;5024953;28;20049;-73
2022/03/09 06:55:26;;;;;;;42.00;28.13;;;;;;;5.31;55.12;100718.84;5029150;28;20052;-75
2022/03/09 06:57:53;;;;;;;40.45;27.52;;;;;;;5.29;54.96;100729.41;5028058;28;20049;-74
2022/03/09 07:00:22;;;;;;;55.85;32.20;;;;;;;5.21;55.34;100738.53;5025883;28;20060;-74
2022/03/09 07:02:48;;;;;;;45.20;30.85;;;;;;;5.15;55.36;100739.63;5025657;28;20052;-74
2022/03/09 07:05:16;;;;;;;48.60;30.50;;;;;;;5.20;55.33;100736.81;5027255;28;20045;-73
2022/03/09 07:07:43;;;;;;;46.38;30.75;;;;;;;5.16;55.27;100731.69;5026403;28;20101;-74
2022/03/09 07:10:13;;;;;;;41.38;27.25;;;;;;;5.15;55.24;100735.25;5026190;28;20048;-72
2022/03/09 07:12:44;;;;;;;47.25;30.95;;;;;;;5.02;55.41;100723.56;5027131;28;20077;-74
2022/03/09 07:15:12;;;;;;;51.50;31.85;;;;;;;5.00;55.56;100722.78;5026883;28;20037;-72
2022/03/09 07:17:40;;;;;;;44.58;29.55;;;;;;;5.01;55.40;100716.66;5028476;28;20124;-74
2022/03/09 07:20:10;;;;;;;51.88;27.70;;;;;;;5.06;55.32;100721.66;5027338;28;20111;-74
2022/03/09 07:22:37;;;;;;;54.53;34.47;;;;;;;5.13;55.12;100723.13;5026772;28;20128;-74
2022/03/09 07:25:04;;;;;;;48.53;33.28;;;;;;;5.13;55.27;100717.88;5027574;28;20128;-74
2022/03/09 07:27:31;;;;;;;56.25;32.20;;;;;;;5.23;55.04;100716.56;5029374;28;20053;-73
2022/03/09 07:29:58;;;;;;;46.08;28.70;;;;;;;5.18;54.75;100715.91;5028263;28;20132;-73
2022/03/09 07:32:25;;;;;;;51.72;32.65;;;;;;;5.15;54.61;100714.28;5027318;28;20105;-75
2022/03/09 07:34:54;;;;;;;41.08;27.70;;;;;;;5.21;54.15;100712.34;5027762;28;20161;-72
2022/03/09 07:37:21;;;;;;;41.17;23.17;;;;;;;5.29;53.33;100712.84;5026350;28;20041;-74
2022/03/09 07:39:48;;;;;;;38.50;23.27;;;;;;;5.39;52.25;100713.31;5028724;28;20055;-72
2022/03/09 07:42:15;;;;;;;31.65;20.80;;;;;;;5.47;52.13;100706.78;5029001;28;20513;-74
2022/03/09 07:44:42;;;;;;;33.58;22.83;;;;;;;5.62;51.23;100702.66;5028632;28;20046;-74
2022/03/09 07:47:09;;;;;;;35.17;21.75;;;;;;;5.60;50.57;100701.88;5028450;28;20211;-74
2022/03/09 07:49:37;;;;;;;29.77;17.85;;;;;;;5.71;49.98;100699.63;5030933;28;20054;-73
2022/03/09 07:52:07;;;;;;;32.03;21.00;;;;;;;5.94;49.85;100703.81;5026872;28;20049;-75
2022/03/09 07:54:35;;;;;;;30.35;18.67;;;;;;;6.08;48.85;100697.13;5029567;28;20124;-76
2022/03/09 07:57:02;;;;;;;25.65;18.40;;;;;;;6.08;48.08;100699.72;5030934;28;20133;-73
2022/03/09 07:59:30;;;;;;;28.02;16.75;;;;;;;6.14;47.04;100699.47;5028099;28;20049;-72
2022/03/09 08:01:58;;;;;;;23.63;16.23;;;;;;;6.24;46.51;100689.38;5029289;28;20107;-73
2022/03/09 08:04:26;;;;;;;25.45;17.05;;;;;;;6.44;46.84;100680.53;5033229;28;20043;-75
2022/03/09 08:06:54;;;;;;;21.52;13.50;;;;;;;6.68;46.66;100684.59;5032816;28;20056;-74
2022/03/09 08:09:22;;;;;;;20.95;13.75;;;;;;;6.88;46.64;100685.41;5030588;28;20242;-74
2022/03/09 08:11:49;;;;;;;33.45;18.67;;;;;;;6.84;46.14;100679.44;5029412;28;20679;-74
2022/03/09 08:14:16;;;;;;;27.77;16.48;;;;;;;6.94;46.08;100677.19;5056784;28;20081;-74
2022/03/09 08:16:43;;;;;;;28.48;17.92;;;;;;;7.02;45.81;100679.44;5026426;28;20082;-74
2022/03/09 08:19:11;;;;;;;27.75;17.88;;;;;;;7.04;45.41;100691.56;5025259;28;20715;-75
2022/03/09 08:21:38;;;;;;;25.50;15.32;;;;;;;7.20;45.11;100688.16;5023141;28;20128;-74
2022/03/09 08:24:07;;;;;;;28.20;17.45;;;;;;;7.28;45.25;100686.81;5026153;28;20081;-74
2022/03/09 08:26:35;;;;;;;27.67;14.65;;;;;;;7.39;45.17;100683.63;5026031;28;20053;-72
2022/03/09 08:29:02;;;;;;;28.17;19.17;;;;;;;7.43;44.71;100681.69;5027331;28;20095;-74
2022/03/09 08:31:29;;;;;;;26.63;17.83;;;;;;;7.39;44.71;100685.44;5029513;28;20055;-73
2022/03/09 08:33:56;;;;;;;25.58;15.90;;;;;;;7.45;44.71;100680.72;5024295;28;20081;-73
2022/03/09 08:36:23;;;;;;;25.50;17.33;;;;;;;7.46;44.52;100681.53;5028679;28;20757;-76
2022/03/09 08:38:51;;;;;;;23.63;13.98;;;;;;;7.71;44.55;100677.63;5024335;28;20057;-73
2022/03/09 08:41:18;;;;;;;26.40;17.55;;;;;;;7.79;44.11;100670.16;5023868;28;20049;-74
2022/03/09 08:43:46;;;;;;;27.42;15.77;;;;;;;7.80;44.25;100670.06;5024706;28;20679;-74
2022/03/09 08:46:13;;;;;;;27.20;15.32;;;;;;;7.92;44.06;100668.53;5024549;28;20041;-73
2022/03/09 08:48:41;;;;;;;20.90;12.68;;;;;;;7.96;43.52;100672.72;5023663;28;20091;-73
2022/03/09 08:51:09;;;;;;;26.27;14.77;;;;;;;8.04;43.46;100672.28;5023117;28;20731;-76
2022/03/09 08:53:36;;;;;;;24.45;16.55;;;;;;;8.15;43.41;100675.16;5025740;28;20037;-74
2022/03/09 08:56:03;;;;;;;24.00;17.48;;;;;;;8.22;43.22;100675.69;5023152;28;20096;-74
2022/03/09 08:58:30;;;;;;;24.20;14.77;;;;;;;8.25;43.25;100675.53;5026557;28;20128;-75
2022/03/09 09:00:59;;;;;;;24.42;15.48;;;;;;;8.43;43.07;100671.03;5029399;28;20057;-75
2022/03/09 09:03:26;;;;;;;23.98;16.23;;;;;;;8.44;42.85;100672.72;5026793;28;20420;-73
2022/03/09 09:05:53;;;;;;;31.10;16.50;;;;;;;8.52;42.99;100664.41;5023687;28;20051;-74
2022/03/09 09:08:20;;;;;;;27.15;17.15;;;;;;;8.60;42.39;100665.63;5024923;28;20037;-73
2022/03/09 09:10:48;;;;;;;24.40;16.38;;;;;;;8.71;42.54;100665.00;5024977;28;20041;-74
2022/03/09 09:13:15;;;;;;;22.33;15.52;;;;;;;8.78;42.24;100663.72;5025523;28;20045;-72
2022/03/09 09:15:43;;;;;;;24.45;15.15;;;;;;;8.90;42.03;100662.16;5024319;28;20055;-74
2022/03/09 09:18:14;;;;;;;21.63;13.23;;;;;;;9.17;41.54;100669.38;5023269;28;20052;-74
2022/03/09 09:20:41;;;;;;;25.52;15.73;;;;;;;9.25;41.24;100667.09;5024712;28;20709;-74
2022/03/09 09:23:08;;;;;;;21.85;13.20;;;;;;;9.40;41.45;100669.75;5022634;28;20063;-74
2022/03/09 09:25:36;;;;;;;24.45;15.30;;;;;;;9.58;40.72;100668.66;5025497;28;20124;-73
2022/03/09 09:28:03;;;;;;;17.88;12.02;;;;;;;9.62;39.95;100675.41;5023796;28;20501;-73
2022/03/09 09:30:30;;;;;;;21.67;15.05;;;;;;;9.53;40.07;100673.34;5022775;28;20521;-74
2022/03/09 09:32:57;;;;;;;24.65;15.45;;;;;;;9.42;40.40;100675.78;5023681;28;20057;-73
2022/03/09 09:35:26;;;;;;;24.73;13.43;;;;;;;9.42;40.17;100679.28;5024914;28;20056;-72
2022/03/09 09:37:53;;;;;;;24.13;16.58;;;;;;;9.40;40.15;100682.94;5025279;28;20121;-73
2022/03/09 09:40:20;;;;;;;23.80;14.52;;;;;;;9.41;40.81;100684.63;5027429;28;20072;-75
2022/03/09 09:42:47;;;;;;;25.58;15.07;;;;;;;9.48;40.86;100689.44;5024923;28;20049;-74
2022/03/09 09:45:14;;;;;;;24.20;16.42;;;;;;;9.45;40.94;100688.78;5023959;28;20045;-74
2022/03/09 09:47:41;;;;;;;23.67;13.45;;;;;;;9.43;40.64;100690.66;5024458;28;20118;-76
2022/03/09 09:50:13;;;;;;;24.65;14.15;;;;;;;9.37;40.63;100686.63;5028882;28;20624;-74
2022/03/09 09:52:42;;;;;;;21.55;15.30;;;;;;;9.37;40.92;100683.97;5025267;28;20049;-73
2022/03/09 09:55:09;;;;;;;22.88;15.55;;;;;;;9.56;40.75;100700.38;5024463;28;20064;-73
2022/03/09 09:57:37;;;;;;;27.13;19.13;;;;;;;9.50;40.29;100702.53;5024862;28;20565;-74
2022/03/09 10:00:06;;;;;;;23.55;14.65;;;;;;;9.42;40.36;100703.00;5023551;28;20059;-73
2022/03/09 10:02:33;;;;;;;25.95;15.65;;;;;;;9.59;40.71;100696.69;5022381;28;20774;-73
2022/03/09 10:05:00;;;;;;;24.17;14.43;;;;;;;9.77;40.41;100684.16;5023004;28;20045;-73
2022/03/09 10:07:27;;;;;;;29.13;15.32;;;;;;;9.80;39.47;100689.25;5023099;28;20073;-74
2022/03/09 10:09:55;;;;;;;20.52;12.38;;;;;;;9.90;38.98;100692.16;5024195;28;20143;-73
2022/03/09 10:12:30;;;;;;;22.15;12.85;;;;;;;9.95;39.21;100687.44;5022802;28;20067;-74
2022/03/09 10:14:57;;;;;;;20.73;14.98;;;;;;;10.05;39.02;100691.19;5022082;28;20050;-72
2022/03/09 10:17:26;;;;;;;23.25;15.30;;;;;;;10.26;38.94;100686.34;5024223;28;20133;-73
2022/03/09 10:19:57;;;;;;;16.40;10.82;;;;;;;10.30;37.71;100681.72;5024194;28;20056;-74
2022/03/09 10:22:32;;;;;;;17.70;12.85;;;;;;;10.25;37.59;100679.38;5021986;28;20301;-75
2022/03/09 10:25:16;;;;;;;20.33;13.88;;;;;;;10.28;37.96;100683.59;5022830;28;20132;-75
2022/03/09 10:27:47;;;;;;;17.70;10.85;;;;;;;10.36;38.18;100691.91;5023476;28;20151;-76
2022/03/09 10:30:16;;;;;;;15.82;12.25;;;;;;;10.22;37.28;100684.84;5023980;28;20056;-74
2022/03/09 10:32:47;;;;;;;15.73;10.75;;;;;;;10.07;37.55;100696.38;5023567;28;20049;-75
2022/03/09 10:35:18;;;;;;;18.25;9.55;;;;;;;10.11;37.34;100685.53;5024258;28;20060;-74
2022/03/09 10:37:47;;;;;;;13.50;9.43;;;;;;;10.21;37.08;100693.72;5022966;28;20136;-73
2022/03/09 10:40:17;;;;;;;16.48;11.15;;;;;;;10.21;36.40;100687.56;5023997;28;20045;-75
2022/03/09 10:42:45;;;;;;;14.90;9.90;;;;;;;10.17;37.15;100688.72;5024114;28;20085;-74
2022/03/09 10:45:13;;;;;;;15.15;10.70;;;;;;;10.18;37.28;100688.63;5024955;28;20126;-76
2022/03/09 10:47:42;;;;;;;17.23;11.75;;;;;;;10.24;37.53;100693.50;5023796;28;20122;-73
2022/03/09 10:50:15;;;;;;;17.65;11.63;;;;;;;10.47;37.67;100686.78;5025955;28;20050;-74
2022/03/09 10:52:47;;;;;;;14.48;9.57;;;;;;;10.50;37.10;100683.94;5022059;28;20060;-73
2022/03/09 10:55:23;;;;;;;18.00;12.77;;;;;;;10.47;36.93;100686.78;5023858;28;20385;-76
2022/03/09 10:57:51;;;;;;;17.20;12.50;;;;;;;10.46;37.40;100685.09;5023849;28;20136;-74
2022/03/09 11:00:36;;;;;;;19.38;11.35;;;;;;;10.62;37.29;100678.78;5025068;28;20054;-74
2022/03/09 11:03:06;;;;;;;21.02;12.10;;;;;;;10.63;37.45;100678.69;5026180;28;20132;-74
2022/03/09 11:05:33;;;;;;;17.17;12.48;;;;;;;10.59;37.07;100678.97;5029457;28;20121;-76
2022/03/09 11:08:02;;;;;;;19.98;11.05;;;;;;;10.61;37.88;100669.19;5030199;28;20083;-72
2022/03/09 11:10:31;;;;;;;17.88;11.68;;;;;;;10.76;37.00;100667.31;5028820;28;20080;-73
2022/03/09 11:12:59;;;;;;;14.05;10.00;;;;;;;10.73;36.45;100671.00;5025402;28;20538;-76
2022/03/09 11:15:27;;;;;;;14.65;10.00;;;;;;;10.76;36.87;100668.16;5026848;28;20141;-76
2022/03/09 11:17:54;;;;;;;15.63;10.80;;;;;;;10.85;36.63;100667.53;5026336;28;20133;-74
2022/03/09 11:20:21;;;;;;;16.15;11.02;;;;;;;10.83;36.70;100669.44;5026557;28;20053;-73